Flight Track Log - Related Links

Times and Time Zones

All times are in EDT time to prevent confusion due to time zone crossing. See the CTL13 flight status page for this flight to view local times or setup timezone preferences in your user account.

Time Position Orientation Groundspeed Altitude Reporting Facility
EDT Latitude Longitude Course Direction KTS MPH feet Rate Location/Type
Wed 11:12:29 PM 41.7667 -87.7500 90° East 134 154 1,700  Level Chicago TRACON
Wed 11:13:23 PM 41.7667 -87.7000 90° East 148 170 3,000 678 Climbing Chicago TRACON
Wed 11:14:24 PM 41.7833 -87.6333 71° East 196 226 3,000 793 Level Chicago TRACON
Wed 11:15:24 PM 41.7833 -87.5667 90° East 157 181 4,600 1,552 Climbing Chicago TRACON
Wed 11:16:20 PM 41.7858 -87.5161 86° East 158 182 6,000 718 Climbing Chicago Center
Wed 11:17:21 PM 41.7875 -87.4522 88° East 170 196 6,000  Level Chicago Center
Wed 11:18:22 PM 41.7889 -87.3808 88° East 187 215 6,000  Level Chicago Center
Wed 11:19:23 PM 41.7919 -87.3078 87° East 196 226 6,000  Level Chicago Center
Wed 11:20:24 PM 41.7958 -87.2375 86° East 191 220 6,000  Level Chicago Center
Wed 11:21:26 PM 41.8169 -87.1747 66° East 189 217 6,000  Level Chicago Center
Wed 11:22:27 PM 41.8533 -87.1225 47° Northeast 191 220 6,000  Level Chicago Center
Wed 11:23:28 PM 41.8883 -87.0689 49° Northeast 192 221 6,000 49 Level Chicago Center
Wed 11:24:29 PM 41.9281 -87.0039 51° Northeast 191 220 6,100 492 Climbing Chicago Center
Wed 11:25:30 PM 41.9583 -86.9594 47° Northeast 164 189 7,000 443 Climbing Chicago Center
Wed 11:26:31 PM 41.9911 -86.9089 49° Northeast 178 205 7,000  Level Chicago Center
Wed 11:27:32 PM 42.0239 -86.8592 48° Northeast 178 205 7,000  Level Chicago Center
Wed 11:28:33 PM 42.0517 -86.8142 50° Northeast 168 193 7,000  Level Chicago Center
Wed 11:29:34 PM 42.0814 -86.7669 50° Northeast 167 192 7,000  Level Chicago Center
Wed 11:30:35 PM 42.1097 -86.7189 52° Northeast 165 190 7,000  Level Chicago Center
Wed 11:31:36 PM 42.1406 -86.6719 48° Northeast 167 192 7,000  Level Chicago Center
Wed 11:32:37 PM 42.1694 -86.6253 50° Northeast 163 188 7,000  Level Chicago Center
Wed 11:33:38 PM 42.2061 -86.5692 49° Northeast 165 190 7,000  Level Chicago Center
Wed 11:34:39 PM 42.2358 -86.5233 49° Northeast 163 188 7,000 49 Level Chicago Center
Wed 11:35:40 PM 42.2664 -86.4781 48° Northeast 163 188 7,100 49 Climbing Chicago Center
Wed 11:36:41 PM 42.2969 -86.4325 48° Northeast 164 189 7,100  Level Chicago Center
Wed 11:37:42 PM 42.3261 -86.3894 47° Northeast 165 190 7,100  Level Chicago Center
Wed 11:38:43 PM 42.3575 -86.3442 47° Northeast 166 191 7,100  Level Chicago Center
Wed 11:39:44 PM 42.3869 -86.2969 50° Northeast 165 190 7,100  Level Chicago Center
Wed 11:40:45 PM 42.4178 -86.2508 48° Northeast 165 190 7,100 -49 Level Chicago Center
Wed 11:41:46 PM 42.4478 -86.2044 49° Northeast 165 190 7,000 -49 Descending Chicago Center
Wed 11:42:47 PM 42.4842 -86.1483 49° Northeast 165 190 7,000 49 Level Chicago Center
Wed 11:43:48 PM 42.5153 -86.1022 48° Northeast 166 191 7,100 49 Climbing Chicago Center
Wed 11:44:49 PM 42.5458 -86.0556 48° Northeast 166 191 7,100 -295 Level Chicago Center
Wed 11:45:50 PM 42.5761 -86.0067 50° Northeast 168 193 6,500 -744 Descending Chicago Center
Wed 11:46:50 PM 42.6108 -85.9522 49° Northeast 183 211 5,600 -942 Descending Chicago Center
Wed 11:47:51 PM 42.6467 -85.8944 50° Northeast 196 226 4,600 -984 Descending Chicago Center
Wed 11:48:52 PM 42.6836 -85.8347 50° Northeast 204 235 3,600 -934 Descending Chicago Center
Wed 11:49:53 PM 42.7214 -85.7764 49° Northeast 207 238 2,700 -590 Descending Chicago Center
Wed 11:50:54 PM 42.7611 -85.7222 45° Northeast 206 237 2,400 -246 Descending Chicago Center
Wed 11:51:55 PM 42.7983 -85.6711 45° Northeast 199 229 2,200 -295 Descending Chicago Center
Wed 11:52:56 PM 42.8347 -85.6203 46° Northeast 194 223 1,800 -347 Descending Chicago Center
Wed 11:53:56 PM 42.8739 -85.5789 38° Northeast 179 206 1,500 -446 Descending Chicago Center
Wed 11:54:57 PM 42.8769 -85.5331 85° East 160 184 900 -590 Descending Chicago Center
Wed 11:56:00 PM 42.8808 -85.5228 56° Northeast  Level Estimated
Thu 12:03:00 AM 42.8808 -85.5228 56° Northeast  Level Estimated

Login

Don't have an account? Register now (free) for customized features, flight alerts, and more!